createdAt,value
2022-11-30T04:58:42.156Z,75.87
2022-11-30T05:01:44.567Z,75.87
2022-11-30T05:04:46.989Z,76.48
2022-11-30T05:07:51.453Z,75.65
2022-11-30T05:10:54.795Z,76.08
2022-11-30T05:13:57.131Z,75.39
2022-11-30T05:16:59.257Z,75.71
2022-11-30T05:20:01.928Z,74.79
2022-11-30T05:23:04.013Z,75.47
2022-11-30T05:26:06.364Z,75.85
2022-11-30T05:29:08.459Z,75.57
2022-11-30T05:32:10.774Z,75.70
2022-11-30T05:35:12.860Z,74.51
2022-11-30T05:38:15.750Z,73.94
2022-11-30T05:41:17.940Z,73.57
2022-11-30T05:44:20.299Z,73.87
2022-11-30T05:47:22.722Z,73.44
2022-11-30T05:50:25.022Z,73.06
2022-11-30T05:53:27.170Z,73.00
2022-11-30T05:56:29.700Z,73.75
2022-11-30T05:59:32.038Z,73.76
2022-11-30T06:02:34.860Z,72.45
2022-11-30T06:05:37.364Z,73.23
2022-11-30T06:08:39.435Z,72.05
2022-11-30T06:11:41.727Z,72.71
2022-11-30T06:14:43.963Z,72.10
2022-11-30T06:17:46.389Z,71.95
2022-11-30T06:20:48.444Z,71.51
2022-11-30T06:23:50.803Z,71.17
2022-11-30T06:26:52.848Z,71.63
2022-11-30T06:29:55.151Z,71.71
2022-11-30T06:32:57.203Z,71.33
2022-11-30T06:35:59.798Z,70.21
2022-11-30T06:39:01.898Z,72.36
2022-11-30T06:42:04.432Z,69.81
2022-11-30T06:45:07.200Z,69.37
2022-11-30T06:48:09.560Z,69.90
2022-11-30T06:51:11.761Z,68.79
2022-11-30T06:54:14.085Z,68.89
2022-11-30T06:57:16.140Z,68.45
2022-11-30T07:00:19.276Z,67.91
2022-11-30T07:03:21.385Z,68.50
2022-11-30T07:06:23.732Z,68.71
2022-11-30T07:09:25.824Z,67.84
2022-11-30T07:12:28.127Z,67.90
2022-11-30T07:15:30.212Z,68.64
2022-11-30T07:18:33.364Z,67.31
2022-11-30T07:21:35.433Z,67.06
2022-11-30T07:24:56.397Z,68.55
2022-11-30T07:27:58.439Z,67.59
2022-11-30T07:31:00.779Z,66.90
2022-11-30T07:34:06.925Z,66.37
2022-11-30T07:37:09.362Z,66.55
2022-11-30T07:40:11.771Z,66.55
2022-11-30T07:43:14.177Z,66.29
2022-11-30T07:46:17.212Z,65.80
2022-11-30T07:49:19.697Z,64.61
2022-11-30T07:52:21.813Z,66.39
2022-11-30T07:55:24.149Z,63.33
2022-11-30T07:58:26.179Z,63.93
2022-11-30T08:01:31.426Z,64.84
2022-11-30T08:04:33.874Z,63.92
2022-11-30T08:07:35.966Z,64.64
2022-11-30T08:10:38.258Z,64.30
2022-11-30T08:13:40.510Z,64.27
2022-11-30T08:16:44.159Z,63.39
2022-11-30T08:19:50.113Z,63.82
2022-11-30T08:22:52.831Z,62.51
2022-11-30T08:25:55.064Z,62.84
2022-11-30T08:28:59.139Z,61.69
2022-11-30T08:32:01.168Z,61.78
2022-11-30T08:35:03.826Z,62.79
2022-11-30T08:38:05.906Z,62.80
2022-11-30T08:41:10.110Z,61.69
2022-11-30T08:44:12.166Z,62.21
2022-11-30T08:47:16.721Z,67.03
2022-11-30T08:50:18.901Z,60.79
2022-11-30T08:53:21.250Z,60.46
2022-11-30T08:56:23.656Z,59.05
2022-11-30T08:59:26.251Z,59.39
2022-11-30T09:02:28.613Z,59.37
2022-11-30T09:05:31.028Z,60.19
2022-11-30T09:08:35.891Z,60.27
2022-11-30T09:11:41.821Z,60.21
2022-11-30T09:14:45.561Z,59.68
2022-11-30T09:18:00.401Z,59.31
2022-11-30T09:21:11.081Z,59.44
2022-11-30T09:24:13.498Z,58.74
2022-11-30T09:27:15.521Z,58.96
2022-11-30T09:30:17.932Z,59.09
2022-11-30T09:33:20.455Z,59.05
2022-11-30T09:36:27.378Z,58.67
2022-11-30T09:39:29.488Z,59.15
2022-11-30T09:43:16.530Z,58.33
2022-11-30T09:46:25.859Z,58.36
2022-11-30T09:49:51.299Z,58.17
2022-11-30T09:52:57.856Z,57.32
2022-11-30T09:56:00.808Z,57.51
2022-11-30T09:59:06.040Z,58.35
2022-11-30T10:02:18.033Z,57.70
2022-11-30T10:05:28.714Z,57.49
2022-11-30T10:08:50.831Z,57.24
2022-11-30T10:12:09.044Z,57.42
2022-11-30T10:15:25.031Z,57.52
2022-11-30T10:19:05.463Z,57.82
2022-11-30T10:22:18.287Z,57.32
2022-11-30T10:25:24.894Z,57.99
2022-11-30T10:28:48.835Z,57.43
2022-11-30T10:31:55.418Z,57.25
2022-11-30T10:35:13.156Z,57.66
2022-11-30T10:38:22.636Z,57.77
2022-11-30T10:41:45.803Z,58.32
2022-11-30T10:45:03.330Z,57.54
2022-11-30T10:48:37.608Z,57.99
2022-11-30T10:51:43.289Z,59.38
2022-11-30T10:54:45.569Z,58.06
2022-11-30T10:57:53.420Z,58.10
2022-11-30T11:01:03.126Z,57.61
2022-11-30T11:04:19.337Z,58.24
2022-11-30T11:07:21.704Z,57.58
2022-11-30T11:10:44.444Z,57.80
2022-11-30T11:13:47.343Z,58.05
2022-11-30T11:16:51.341Z,57.06
2022-11-30T11:19:53.437Z,56.98
2022-11-30T11:22:55.949Z,56.85
2022-11-30T11:25:58.222Z,56.54
2022-11-30T11:29:00.627Z,56.92
2022-11-30T11:32:08.562Z,56.95
2022-11-30T11:35:31.918Z,57.31
2022-11-30T11:38:48.301Z,57.98
2022-11-30T11:41:53.115Z,57.56
2022-11-30T11:45:00.046Z,61.14
2022-11-30T11:48:05.858Z,56.58
2022-11-30T11:51:10.591Z,57.05
2022-11-30T11:54:24.638Z,56.10
2022-11-30T11:57:46.378Z,57.08
2022-11-30T12:00:50.588Z,56.31
2022-11-30T12:04:32.960Z,56.84
2022-11-30T12:07:38.820Z,56.78
2022-11-30T12:10:57.607Z,57.33
2022-11-30T12:14:05.140Z,57.24
2022-11-30T12:17:33.459Z,56.83
2022-11-30T12:20:53.696Z,57.09
2022-11-30T12:23:58.857Z,56.52
2022-11-30T12:27:03.942Z,56.64
2022-11-30T12:30:12.067Z,56.68
2022-11-30T12:33:18.032Z,56.65
2022-11-30T12:36:25.140Z,57.02
2022-11-30T12:39:48.414Z,56.56
2022-11-30T12:43:20.421Z,54.86
2022-11-30T12:46:54.086Z,54.34
2022-11-30T12:50:33.977Z,54.03
2022-11-30T12:54:13.025Z,54.00
2022-11-30T12:57:27.511Z,53.84
2022-11-30T13:00:45.724Z,53.74
2022-11-30T13:03:51.564Z,54.79
2022-11-30T13:07:20.844Z,54.27
2022-11-30T13:10:37.488Z,53.94
2022-11-30T13:13:46.583Z,53.78
2022-11-30T13:16:56.231Z,53.95
2022-11-30T13:19:58.180Z,54.35
2022-11-30T13:23:09.404Z,54.50
2022-11-30T13:26:36.321Z,55.24
2022-11-30T13:30:07.044Z,55.70
2022-11-30T13:33:33.778Z,55.34
2022-11-30T13:36:41.307Z,55.39
2022-11-30T13:39:49.535Z,55.45
2022-11-30T13:42:55.545Z,55.87
2022-11-30T13:46:07.228Z,55.13
2022-11-30T13:49:31.129Z,54.99
2022-11-30T13:52:58.508Z,55.63
2022-11-30T13:56:03.800Z,56.00
2022-11-30T13:59:24.331Z,55.65
2022-11-30T14:02:42.333Z,55.40
2022-11-30T14:05:48.697Z,56.04
2022-11-30T14:08:51.123Z,56.28
2022-11-30T14:11:53.518Z,56.64
2022-11-30T14:14:55.543Z,55.00
2022-11-30T14:17:58.738Z,55.15
2022-11-30T14:21:13.910Z,56.04
2022-11-30T14:24:28.488Z,55.65
2022-11-30T14:27:30.548Z,55.21
2022-11-30T14:30:34.172Z,55.35
2022-11-30T14:33:48.237Z,55.61
2022-11-30T14:37:00.469Z,55.15
2022-11-30T14:40:06.815Z,55.92
2022-11-30T14:43:24.528Z,55.54
2022-11-30T14:46:27.690Z,55.38
2022-11-30T14:49:30.068Z,54.91
2022-11-30T14:52:37.611Z,55.21
2022-11-30T14:55:58.693Z,55.92
2022-11-30T14:59:31.332Z,55.01
2022-11-30T15:02:38.589Z,54.70
2022-11-30T15:05:43.039Z,54.81
2022-11-30T15:08:54.900Z,54.42
2022-11-30T15:11:58.227Z,54.25
2022-11-30T15:15:06.729Z,53.82
2022-11-30T15:18:17.279Z,53.69
2022-11-30T15:21:25.631Z,53.43
2022-11-30T15:24:29.445Z,53.77
2022-11-30T15:27:32.113Z,53.36
2022-11-30T15:30:40.469Z,53.65
2022-11-30T15:33:45.665Z,53.17
2022-11-30T15:36:48.064Z,54.36
2022-11-30T15:39:55.445Z,53.62
2022-11-30T15:42:58.468Z,53.39
2022-11-30T15:46:00.844Z,52.82
2022-11-30T15:49:07.441Z,54.07
2022-11-30T15:52:09.703Z,54.15
2022-11-30T15:55:47.987Z,56.30
2022-11-30T15:59:01.189Z,54.17
2022-11-30T16:02:14.409Z,54.28
2022-11-30T16:05:18.017Z,54.56
2022-11-30T16:08:20.203Z,54.92
2022-11-30T16:11:22.987Z,56.93
2022-11-30T16:14:25.099Z,56.68
2022-11-30T16:17:28.151Z,57.67
2022-11-30T16:20:30.311Z,55.83
2022-11-30T16:23:35.691Z,54.04
2022-11-30T16:26:53.093Z,54.02
2022-11-30T16:29:55.802Z,54.21
